Time;durP1;ratioP1;P1;durP2;ratioP2;P2;SDS_P1;SDS_P2;PMS_P1;PMS_P2;Temp;Humidity;BMP_temperature;BMP_pressure;BME280_temperature;BME280_humidity;BME280_pressure;Samples;Min_cycle;Max_cycle;Signal;HPM_P1;HPM_P2
2022/02/23 00:00:42;;;;;;;;;50.00;44.75;;;;;7.32;100.00;100823.63;4934783;29;11701;-77
2022/02/23 00:03:38;;;;;;;;;35.00;35.00;;;;;7.36;100.00;100824.66;4921720;29;11710;-77
2022/02/23 00:06:34;;;;;;;;;32.25;30.00;;;;;7.40;100.00;100825.66;4935505;29;11620;-77
2022/02/23 00:09:29;;;;;;;;;47.25;41.50;;;;;7.37;100.00;100829.03;4921778;29;12350;-76
2022/02/23 00:12:25;;;;;;;;;28.75;27.50;;;;;7.39;100.00;100829.53;4921767;29;11612;-76
2022/02/23 00:15:21;;;;;;;;;45.00;39.75;;;;;7.28;100.00;100836.34;4923162;29;11683;-76
2022/02/23 00:18:17;;;;;;;;;50.25;43.00;;;;;7.29;100.00;100851.75;4921870;29;11743;-77
2022/02/23 00:21:13;;;;;;;;;56.25;47.75;;;;;7.37;100.00;100852.97;4921811;29;11575;-76
2022/02/23 00:24:09;;;;;;;;;59.00;47.75;;;;;7.33;100.00;100850.00;4922954;29;11566;-76
2022/02/23 00:27:04;;;;;;;;;59.75;49.50;;;;;7.33;100.00;100849.19;4921690;29;12403;-76
2022/02/23 00:29:47;;;;;;;;;58.25;49.50;;;;;7.27;100.00;100851.22;4947719;29;11705;-77
2022/02/23 00:32:16;;;;;;;;;53.50;44.75;;;;;7.32;100.00;100850.31;4954511;29;11688;-77
2022/02/23 00:35:12;;;;;;;;;59.25;47.00;;;;;7.28;100.00;100857.53;4933173;29;11673;-77
2022/02/23 00:38:02;;;;;;;;;51.00;43.00;;;;;7.35;100.00;100872.53;4921518;29;11633;-77
2022/02/23 00:40:39;;;;;;;;;51.50;45.25;;;;;7.33;100.00;100868.44;4935116;29;11627;-77
2022/02/23 00:43:34;;;;;;;;;49.75;44.00;;;;;7.34;100.00;100867.34;4921541;29;12352;-77
2022/02/23 00:46:31;;;;;;;;;53.75;46.25;;;;;7.27;100.00;100872.41;4955523;28;11571;-77
2022/02/23 00:49:28;;;;;;;;;56.00;47.25;;;;;7.06;100.00;100883.00;4944030;28;11729;-77
2022/02/23 00:52:24;;;;;;;;;52.75;45.75;;;;;7.03;100.00;100878.09;4956835;28;11646;-76
2022/02/23 00:55:19;;;;;;;;;46.25;42.50;;;;;7.11;100.00;100877.38;4955069;28;11620;-76
2022/02/23 00:58:15;;;;;;;;;55.25;46.00;;;;;7.08;100.00;100873.31;4941305;29;12327;-78
2022/02/23 01:01:10;;;;;;;;;49.50;39.75;;;;;7.16;100.00;100874.56;4924709;29;11729;-77
2022/02/23 01:04:07;;;;;;;;;60.75;51.75;;;;;7.18;100.00;100869.56;4937286;28;11616;-76
2022/02/23 01:07:04;;;;;;;;;69.75;57.25;;;;;7.24;100.00;100871.91;4925113;29;11631;-77
2022/02/23 01:10:00;;;;;;;;;70.50;55.75;;;;;7.27;100.00;100864.97;4935952;29;11617;-77
2022/02/23 01:12:55;;;;;;;;;65.25;55.00;;;;;7.29;100.00;100864.69;4964628;28;12370;-77
2022/02/23 01:15:23;;;;;;;;;65.50;53.75;;;;;7.28;100.00;100877.59;4955888;28;11712;-76
2022/02/23 01:18:19;;;;;;;;;71.50;57.50;;;;;7.28;100.00;100874.03;4956339;28;11686;-77
2022/02/23 01:21:15;;;;;;;;;59.75;44.50;;;;;7.33;100.00;100873.97;4937063;29;11601;-77
2022/02/23 01:24:11;;;;;;;;;67.25;54.75;;;;;7.40;100.00;100879.88;4936793;29;11585;-77
2022/02/23 01:27:06;;;;;;;;;63.00;50.50;;;;;7.46;100.00;100884.16;4923910;29;11623;-76
2022/02/23 01:30:05;;;;;;;;;66.00;54.00;;;;;7.45;100.00;100897.13;4936951;29;11592;-76
2022/02/23 01:32:35;;;;;;;;;67.25;53.25;;;;;7.51;100.00;100906.06;4943522;28;11618;-76
2022/02/23 01:35:31;;;;;;;;;45.25;38.50;;;;;7.55;100.00;100911.78;4947760;29;11608;-76
2022/02/23 01:38:27;;;;;;;;;62.25;52.50;;;;;7.56;100.00;100918.91;4924381;29;11214;-76
2022/02/23 01:41:23;;;;;;;;;57.25;45.25;;;;;7.57;100.00;100932.38;4936735;29;11655;-76
2022/02/23 01:44:19;;;;;;;;;57.75;45.75;;;;;7.53;100.00;100932.19;4924906;28;12313;-76
2022/02/23 01:47:15;;;;;;;;;45.50;42.00;;;;;7.64;100.00;100930.03;4936824;29;11615;-76
2022/02/23 01:50:10;;;;;;;;;49.25;44.50;;;;;7.65;100.00;100917.09;4923755;29;11601;-76
2022/02/23 01:52:52;;;;;;;;;54.50;46.50;;;;;7.67;100.00;100906.59;4933967;28;11596;-76
2022/02/23 01:55:47;;;;;;;;;82.75;62.75;;;;;7.62;100.00;100904.75;4953541;28;11646;-75
2022/02/23 01:58:43;;;;;;;;;97.67;83.33;;;;;7.59;100.00;100918.28;4955790;28;11619;-75
2022/02/23 02:01:39;;;;;;;;;95.33;79.00;;;;;7.63;100.00;100916.59;4942907;28;11672;-76
2022/02/23 02:04:34;;;;;;;;;114.67;97.33;;;;;7.57;100.00;100920.53;4940758;28;11620;-76
2022/02/23 02:07:30;;;;;;;;;112.33;93.67;;;;;7.67;99.97;100934.94;4955248;28;8893;-77
2022/02/23 02:10:26;;;;;;;;;118.33;94.00;;;;;7.59;100.00;100929.31;4939115;28;9028;-77
2022/02/23 02:13:21;;;;;;;;;101.33;87.33;;;;;7.67;100.00;100934.13;4956058;28;8921;-77
2022/02/23 02:16:17;;;;;;;;;114.33;95.33;;;;;7.67;99.78;100947.91;4936992;29;8869;-77
2022/02/23 02:19:13;;;;;;;;;147.67;104.67;;;;;7.69;100.00;100932.69;4924175;29;8852;-77
2022/02/23 02:22:09;;;;;;;;;151.33;112.67;;;;;7.67;100.00;100932.19;4923858;29;8884;-77
2022/02/23 02:25:06;;;;;;;;;141.67;110.67;;;;;7.69;100.00;100932.69;4951967;28;8846;-77
2022/02/23 02:28:04;;;;;;;;;127.67;105.00;;;;;7.60;99.23;100940.03;4948051;28;8846;-76
2022/02/23 02:30:59;;;;;;;;;101.67;77.33;;;;;7.47;97.11;100944.41;4946664;28;8856;-77
2022/02/23 02:33:55;;;;;;;;;111.00;90.67;;;;;7.55;97.18;100945.63;4950809;29;8849;-76
2022/02/23 02:36:51;;;;;;;;;109.67;85.33;;;;;7.64;97.04;100945.72;4935868;29;8853;-77
2022/02/23 02:39:46;;;;;;;;;116.00;101.67;;;;;7.59;97.46;100946.66;4935979;29;8864;-77
2022/02/23 02:42:42;;;;;;;;;101.67;94.00;;;;;7.64;96.70;100954.00;4922751;29;8861;-77
2022/02/23 02:45:38;;;;;;;;;86.67;69.00;;;;;7.57;98.56;100951.63;4923170;29;8873;-77
2022/02/23 02:48:33;;;;;;;;;105.67;86.67;;;;;7.51;99.22;100950.09;4935507;29;8863;-77
2022/02/23 02:51:29;;;;;;;;;99.33;83.00;;;;;7.46;100.00;100955.72;4935485;29;8924;-77
2022/02/23 02:54:25;;;;;;;;;136.67;115.33;;;;;7.48;99.42;100954.28;4936845;29;8849;-76
2022/02/23 02:57:20;;;;;;;;;144.67;105.67;;;;;7.46;97.35;100959.28;4935679;29;8964;-76
2022/02/23 02:59:48;;;;;;;;;129.33;101.67;;;;;7.46;96.56;100964.78;4936476;29;8951;-76
2022/02/23 03:02:44;;;;;;;;;145.67;107.33;;;;;7.40;95.54;100967.94;4922786;29;8884;-78
2022/02/23 03:05:12;;;;;;;;;65.67;27.67;;;;;7.46;95.38;100978.53;4952123;28;8850;-77
2022/02/23 03:08:08;;;;;;;;;173.00;123.67;;;;;7.54;95.27;100977.03;4934783;29;8883;-76
2022/02/23 03:11:03;;;;;;;;;175.33;132.00;;;;;7.47;95.25;100974.66;4935186;29;8849;-77
2022/02/23 03:13:59;;;;;;;;;185.75;141.50;;;;;7.42;95.19;100969.25;4939169;29;8931;-77
2022/02/23 03:16:55;;;;;;;;;184.50;150.25;;;;;7.42;95.29;100965.69;4922827;29;8857;-77
2022/02/23 03:19:50;;;;;;;;;164.25;131.25;;;;;7.45;94.36;100976.09;4935136;29;8853;-76
2022/02/23 03:22:46;;;;;;;;;136.33;112.00;;;;;7.47;94.56;100977.41;4935176;29;8875;-76
2022/02/23 03:25:41;;;;;;;;;138.33;110.67;;;;;7.40;95.01;100971.50;4935437;29;8853;-76
2022/02/23 03:28:38;;;;;;;;;141.00;111.67;;;;;7.42;95.56;100977.50;4935288;29;8872;-77
2022/02/23 03:31:34;;;;;;;;;119.33;101.00;;;;;7.36;95.61;100977.88;4934763;29;8883;-77
2022/02/23 03:34:29;;;;;;;;;117.33;103.33;;;;;7.28;96.99;100984.91;4932334;28;8889;-76
2022/02/23 03:37:25;;;;;;;;;117.33;101.00;;;;;7.35;97.30;100990.03;4954151;28;8881;-77
2022/02/23 03:40:21;;;;;;;;;123.00;101.33;;;;;7.36;97.63;100989.75;4941158;28;8855;-77
2022/02/23 03:43:17;;;;;;;;;133.00;113.00;;;;;7.35;98.33;100982.56;4941124;28;8858;-76
2022/02/23 03:46:13;;;;;;;;;128.00;102.33;;;;;7.25;98.18;100985.53;4936171;28;9608;-76
2022/02/23 03:49:09;;;;;;;;;123.33;110.33;;;;;7.33;98.22;100992.25;4941449;28;8844;-77
2022/02/23 03:52:04;;;;;;;;;104.67;93.33;;;;;7.33;99.01;100998.59;4941620;29;8829;-77
2022/02/23 03:54:32;;;;;;;;;114.67;102.00;;;;;7.35;99.56;101003.78;4937781;29;8828;-77
2022/02/23 03:57:28;;;;;;;;;103.33;92.00;;;;;7.25;100.00;101004.78;4953920;28;8864;-77
2022/02/23 04:00:23;;;;;;;;;93.33;81.33;;;;;7.20;100.00;101007.59;4953945;29;8832;-78
2022/02/23 04:02:56;;;;;;;;;92.33;75.67;;;;;7.20;100.00;101005.66;4954801;29;8930;-77
2022/02/23 04:05:51;;;;;;;;;89.00;73.33;;;;;7.24;100.00;100992.13;4921780;29;9622;-78
2022/02/23 04:08:47;;;;;;;;;87.33;69.67;;;;;7.20;98.35;101002.09;4922538;29;11628;-77
2022/02/23 04:11:43;;;;;;;;;89.67;75.00;;;;;7.19;98.28;101008.72;4939946;28;11581;-78
2022/02/23 04:14:38;;;;;;;;;87.33;65.33;;;;;7.10;99.78;100999.53;4952213;29;8840;-76
2022/02/23 04:17:06;;;;;;;;;88.67;70.67;;;;;7.12;100.00;101005.53;4945305;28;11688;-79
2022/02/23 04:20:02;;;;;;;;;84.67;63.00;;;;;7.10;100.00;101010.53;4925574;29;11605;-77
2022/02/23 04:22:58;;;;;;;;;82.25;64.75;;;;;7.01;100.00;101015.09;4926141;28;11617;-76
2022/02/23 04:25:53;;;;;;;;;81.75;60.00;;;;;6.85;100.00;101015.31;4944959;29;11610;-77
2022/02/23 04:28:49;;;;;;;;;89.75;69.00;;;;;6.69;100.00;101022.97;4938299;29;11620;-77
2022/02/23 04:31:45;;;;;;;;;80.25;65.75;;;;;6.67;100.00;101029.84;4925233;29;11616;-77
2022/02/23 04:34:40;;;;;;;;;80.75;64.50;;;;;6.67;100.00;101038.94;4926413;29;11732;-77
2022/02/23 04:37:36;;;;;;;;;90.67;73.00;;;;;6.66;100.00;101036.47;4937943;29;11614;-77
2022/02/23 04:40:32;;;;;;;;;88.67;67.00;;;;;6.76;98.59;101038.28;4924861;29;8853;-77
2022/02/23 04:43:32;;;;;;;;;99.67;81.67;;;;;6.80;96.83;101040.13;4939384;28;9005;-77
2022/02/23 04:46:01;;;;;;;;;96.00;78.67;;;;;6.70;95.89;101040.28;4938810;29;8931;-77
2022/02/23 04:49:27;;;;;;;;;90.33;72.00;;;;;6.73;94.18;101053.41;4924925;29;9607;-77
2022/02/23 04:52:26;;;;;;;;;94.00;80.33;;;;;6.77;94.56;101064.66;4925212;29;8841;-77
2022/02/23 04:55:21;;;;;;;;;98.00;84.33;;;;;6.78;95.62;101063.53;4938868;29;9031;-77
2022/02/23 04:58:17;;;;;;;;;93.33;77.33;;;;;6.63;94.91;101081.06;4938882;29;8853;-77
2022/02/23 05:01:13;;;;;;;;;98.00;84.33;;;;;6.73;93.83;101080.09;4937422;29;8849;-77
2022/02/23 05:04:08;;;;;;;;;88.33;67.67;;;;;6.55;88.82;101087.19;4950105;28;8983;-77
2022/02/23 05:07:04;;;;;;;;;79.00;63.33;;;;;6.56;88.91;101077.84;4943648;28;12390;-77
2022/02/23 05:10:00;;;;;;;;;97.33;72.67;;;;;6.54;89.13;101088.31;4947538;28;8860;-76
2022/02/23 05:12:28;;;;;;;;;87.00;70.00;;;;;6.43;87.47;101092.28;4948128;28;8986;-76
2022/02/23 05:15:24;;;;;;;;;76.00;58.33;;;;;6.51;87.46;101092.44;4954566;28;8829;-76
2022/02/23 05:18:19;;;;;;;;;95.00;79.67;;;;;6.41;86.26;101098.91;4956524;28;8850;-77
2022/02/23 05:21:15;;;;;;;;;112.00;99.33;;;;;6.45;86.61;101095.56;4956501;28;8949;-76
2022/02/23 05:24:11;;;;;;;;;115.00;104.00;;;;;6.46;85.96;101105.47;4956197;28;8858;-76
2022/02/23 05:27:07;;;;;;;;;109.33;85.00;;;;;6.41;84.80;101122.81;4968829;28;8849;-76
2022/02/23 05:29:35;;;;;;;;;152.67;108.00;;;;;6.35;84.13;101123.97;4963692;28;8866;-77
2022/02/23 05:32:30;;;;;;;;;107.67;74.67;;;;;6.37;84.59;101130.84;4956085;28;8911;-77
2022/02/23 05:35:26;;;;;;;;;125.33;97.33;;;;;6.43;84.93;101128.00;4955916;28;8866;-77
2022/02/23 05:38:23;;;;;;;;;110.33;93.33;;;;;6.34;87.89;101139.63;4955808;28;8835;-77
2022/02/23 05:41:18;;;;;;;;;107.67;93.33;;;;;6.38;88.14;101143.44;4955864;28;8881;-76
2022/02/23 05:44:14;;;;;;;;;96.67;81.33;;;;;6.32;86.20;101141.88;4955391;28;8840;-76
2022/02/23 05:47:09;;;;;;;;;96.33;83.00;;;;;6.22;83.91;101141.97;4955204;28;8855;-76
2022/02/23 05:50:06;;;;;;;;;93.00;74.67;;;;;6.34;84.97;101156.13;4955921;28;8867;-77
2022/02/23 05:53:02;;;;;;;;;36.00;32.00;;;;;6.11;85.84;101151.41;4955718;28;9668;-77
2022/02/23 05:55:30;;;;;;;;;83.67;66.00;;;;;6.12;86.00;101159.34;4956653;28;11561;-78
2022/02/23 05:58:26;;;;;;;;;87.67;67.00;;;;;6.16;85.81;101165.09;4943280;28;11660;-78
2022/02/23 06:01:22;;;;;;;;;88.67;72.33;;;;;6.21;85.53;101166.97;4941535;28;9610;-75
2022/02/23 06:04:18;;;;;;;;;90.00;71.00;;;;;6.19;84.57;101169.19;4955254;28;8871;-76
2022/02/23 06:07:13;;;;;;;;;90.67;73.67;;;;;6.27;84.39;101163.88;4955401;28;8847;-76
2022/02/23 06:10:09;;;;;;;;;93.67;78.67;;;;;6.44;84.01;101176.34;4954865;28;8851;-76
2022/02/23 06:13:04;;;;;;;;;97.67;86.00;;;;;6.50;82.45;101189.75;4942585;28;8869;-76
2022/02/23 06:16:03;;;;;;;;;83.67;63.00;;;;;6.63;79.92;101199.22;4955535;28;8878;-76
2022/02/23 06:18:59;;;;;;;;;89.67;68.33;;;;;6.66;79.02;101195.88;4955246;28;11608;-76
2022/02/23 06:21:55;;;;;;;;;80.67;64.33;;;;;6.65;78.04;101200.56;4954607;28;8854;-76
2022/02/23 06:24:50;;;;;;;;;96.00;77.33;;;;;6.70;77.36;101210.69;4954919;28;11600;-76
2022/02/23 06:27:46;;;;;;;;;93.67;77.00;;;;;6.67;77.75;101216.75;4956760;28;8976;-77
2022/02/23 06:30:14;;;;;;;;;95.67;73.00;;;;;6.57;77.72;101212.19;4952223;28;9620;-76
2022/02/23 06:33:11;;;;;;;;;102.67;84.33;;;;;6.66;78.13;101215.94;4954793;28;8850;-76
2022/02/23 06:36:06;;;;;;;;;110.33;88.00;;;;;6.66;77.62;101226.13;4954779;28;8873;-77
2022/02/23 06:39:02;;;;;;;;;103.67;84.00;;;;;6.62;78.10;101225.09;4942902;28;8858;-75
2022/02/23 06:41:30;;;;;;;;;87.00;66.00;;;;;6.66;77.38;101221.44;4955620;28;8850;-76
2022/02/23 06:44:26;;;;;;;;;91.67;72.33;;;;;6.70;76.48;101229.94;4954924;28;8965;-75
2022/02/23 06:47:22;;;;;;;;;85.50;66.00;;;;;6.65;76.63;101233.56;4954879;28;8855;-76
2022/02/23 06:50:18;;;;;;;;;94.00;68.50;;;;;6.71;76.54;101239.00;4955152;28;11691;-76
2022/02/23 06:53:15;;;;;;;;;93.67;68.00;;;;;6.59;76.04;101245.69;4941658;28;11654;-76
2022/02/23 06:56:11;;;;;;;;;91.67;73.00;;;;;6.70;75.94;101251.94;4953552;28;12880;-76
2022/02/23 06:59:06;;;;;;;;;117.00;88.67;;;;;6.68;75.70;101245.91;4942066;28;8869;-76
2022/02/23 07:02:02;;;;;;;;;131.33;95.00;;;;;6.83;76.69;101245.75;4960526;28;8858;-75
2022/02/23 07:04:58;;;;;;;;;128.67;88.00;;;;;6.68;75.34;101251.41;4973693;28;8949;-76
2022/02/23 07:07:26;;;;;;;;;139.67;104.33;;;;;6.85;75.52;101261.94;4954556;28;9657;-76
2022/02/23 07:09:54;;;;;;;;;183.00;134.67;;;;;6.88;75.69;101256.66;4953903;28;8867;-76
2022/02/23 07:12:51;;;;;;;;;120.67;100.00;;;;;7.04;73.50;101265.56;4953920;28;9049;-76
2022/02/23 07:15:47;;;;;;;;;125.33;89.33;;;;;7.51;77.03;101266.59;4960063;28;8837;-76
2022/02/23 07:18:43;;;;;;;;;92.33;69.00;;;;;7.63;75.20;101277.19;4961407;28;8876;-75
2022/02/23 07:21:25;;;;;;;;;90.33;71.33;;;;;7.54;76.51;101266.03;4934770;29;8869;-75
2022/02/23 07:23:53;;;;;;;;;89.00;66.50;;;;;7.78;78.01;101274.22;4946635;28;11618;-78
2022/02/23 07:26:48;;;;;;;;;96.00;73.67;;;;;7.88;76.69;101274.06;4941884;28;11681;-76
2022/02/23 07:29:18;;;;;;;;;79.75;63.25;;;;;7.77;78.77;101270.66;4954884;28;12475;-77
2022/02/23 07:31:46;;;;;;;;;87.25;67.00;;;;;7.89;77.29;101274.88;4937858;28;12494;-77
2022/02/23 07:34:18;;;;;;;;;86.75;66.50;;;;;8.13;77.17;101281.13;4954800;28;11665;-77
2022/02/23 07:36:46;;;;;;;;;96.00;78.33;;;;;8.45;77.26;101277.59;4937635;28;12224;-78
2022/02/23 07:39:43;;;;;;;;;102.50;81.50;;;;;8.35;73.58;101286.00;4942027;29;11749;-76
2022/02/23 07:42:10;;;;;;;;;101.33;76.33;;;;;8.23;75.46;101283.72;4950898;28;11658;-76
2022/02/23 07:44:58;;;;;;;;;118.25;83.50;;;;;8.54;75.89;101284.03;4974153;28;11704;-78
2022/02/23 07:47:53;;;;;;;;;58.25;47.50;;;;;8.57;72.76;101291.69;4960636;28;11645;-76
2022/02/23 07:50:49;;;;;;;;;68.50;56.75;;;;;9.00;76.69;101285.94;4921588;28;11629;-75
2022/02/23 07:53:17;;;;;;;;;70.25;56.00;;;;;8.86;71.47;101305.25;4923449;28;11610;-76
2022/02/23 07:56:12;;;;;;;;;89.50;64.25;;;;;9.02;72.07;101300.25;4951318;28;11758;-75
2022/02/23 07:58:46;;;;;;;;;86.00;65.50;;;;;8.86;70.64;101310.75;4940518;29;11715;-76
2022/02/23 08:01:31;;;;;;;;;80.00;59.75;;;;;9.00;70.89;101308.03;4943818;29;11675;-76
2022/02/23 08:03:59;;;;;;;;;89.50;63.75;;;;;9.01;70.72;101306.91;4941538;29;11792;-75
2022/02/23 08:06:28;;;;;;;;;81.00;62.50;;;;;8.91;71.27;101307.91;4952072;29;11694;-75
2022/02/23 08:08:56;;;;;;;;;87.75;69.50;;;;;9.13;72.57;101312.75;4941305;29;12496;-74
2022/02/23 08:11:25;;;;;;;;;84.25;55.50;;;;;9.25;70.35;101314.16;4952665;29;12507;-75
2022/02/23 08:13:58;;;;;;;;;90.25;65.00;;;;;9.31;71.11;101310.19;4952985;29;11869;-74
2022/02/23 08:20:10;;;;;;;;;82.00;62.75;;;;;9.39;70.37;101309.47;4945102;29;12520;-74
2022/02/23 08:22:55;;;;;;;;;82.00;61.50;;;;;9.52;71.15;101310.59;4943164;29;11715;-74
2022/02/23 08:25:23;;;;;;;;;79.25;57.75;;;;;9.15;66.83;101318.75;4958341;28;11609;-75
2022/02/23 08:27:51;;;;;;;;;71.75;56.25;;;;;9.44;68.96;101320.41;4950426;29;11623;-73
2022/02/23 08:30:22;;;;;;;;;77.50;62.25;;;;;9.49;67.39;101314.75;4920980;28;11782;-76
2022/02/23 08:32:51;;;;;;;;;79.00;60.25;;;;;9.51;66.31;101317.22;4934829;28;11649;-74
2022/02/23 08:35:39;;;;;;;;;61.00;48.50;;;;;9.50;64.59;101316.38;4951933;29;11792;-70
2022/02/23 08:38:15;;;;;;;;;53.00;45.25;;;;;9.63;64.06;101325.78;4935249;29;11699;-73
2022/02/23 08:41:11;;;;;;;;;48.00;40.75;;;;;9.74;65.97;101316.19;4943226;29;12491;-71
2022/02/23 08:44:07;;;;;;;;;33.25;30.75;;;;;9.54;64.29;101322.94;4942240;29;12300;-70
2022/02/23 08:47:03;;;;;;;;;36.00;35.00;;;;;9.36;63.37;101315.59;4934000;29;11527;-70
2022/02/23 08:50:00;;;;;;;;;42.75;39.00;;;;;9.43;65.01;101324.25;4921372;29;11633;-71
2022/02/23 08:52:56;;;;;;;;;28.25;23.00;;;;;9.46;65.25;101323.66;4935350;29;11539;-70
2022/02/23 08:55:52;;;;;;;;;31.25;29.00;;;;;9.51;62.17;101325.50;4941813;29;11629;-70
2022/02/23 08:58:19;;;;;;;;;45.00;39.75;;;;;9.66;63.76;101323.25;4950757;29;11660;-71
2022/02/23 09:00:48;;;;;;;;;35.00;31.75;;;;;9.78;63.30;101321.88;4953924;28;11564;-72
2022/02/23 09:03:44;;;;;;;;;42.00;37.00;;;;;9.98;61.90;101329.72;4947625;28;11576;-71
2022/02/23 09:06:12;;;;;;;;;32.25;32.00;;;;;9.94;61.17;101331.47;4936594;28;11659;-71
2022/02/23 09:09:13;;;;;;;;;25.75;25.75;;;;;9.88;61.10;101327.16;4942467;28;11568;-71
2022/02/23 09:12:09;;;;;;;;;42.00;37.50;;;;;10.15;61.77;101316.06;4937048;29;11116;-71
2022/02/23 09:15:07;;;;;;;;;36.50;34.50;;;;;10.60;63.61;101315.28;4937172;29;11569;-72
2022/02/23 09:18:03;;;;;;;;;35.25;31.75;;;;;10.62;61.63;101324.88;4927403;28;11694;-71
2022/02/23 09:21:01;;;;;;;;;29.25;26.75;;;;;10.77;61.55;101312.59;4936991;29;11338;-72
2022/02/23 09:23:59;;;;;;;;;19.00;17.50;;;;;11.23;58.99;101325.19;4953168;28;11025;-73
2022/02/23 09:26:56;;;;;;;;;37.25;34.75;;;;;11.33;56.44;101324.91;4952978;28;11089;-73
2022/02/23 09:29:25;;;;;;;;;59.25;47.50;;;;;11.34;56.31;101327.34;4956889;28;11053;-73
2022/02/23 09:31:53;;;;;;;;;62.50;49.25;;;;;11.35;56.22;101325.41;4956118;28;11640;-72
2022/02/23 09:34:23;;;;;;;;;57.25;43.25;;;;;11.71;55.36;101327.94;4945847;28;11620;-71
2022/02/23 09:36:52;;;;;;;;;52.50;41.00;;;;;11.64;53.69;101320.09;4956690;28;11702;-73
2022/02/23 09:39:19;;;;;;;;;51.50;42.00;;;;;11.54;53.31;101316.81;4956305;28;11271;-72
2022/02/23 09:41:47;;;;;;;;;50.50;39.50;;;;;11.76;53.06;101321.44;4953800;28;11265;-74
2022/02/23 09:44:17;;;;;;;;;40.25;33.25;;;;;11.99;53.23;101311.88;4956820;28;10999;-73
2022/02/23 09:46:45;;;;;;;;;50.75;38.00;;;;;11.85;53.86;101314.78;4952773;28;10800;-73
2022/02/23 09:49:15;;;;;;;;;46.00;40.25;;;;;11.98;54.91;101314.97;4948000;28;10808;-73
2022/02/23 09:51:46;;;;;;;;;45.25;39.75;;;;;11.97;54.43;101305.84;4956404;28;10864;-72
2022/02/23 09:54:14;;;;;;;;;56.50;46.00;;;;;12.24;53.15;101315.78;4956438;28;10862;-72
2022/02/23 09:56:45;;;;;;;;;54.50;45.00;;;;;12.06;53.03;101319.72;4956877;28;11056;-74
2022/02/23 09:59:14;;;;;;;;;41.75;33.75;;;;;11.86;51.08;101315.59;4939622;28;11916;-74
2022/02/23 10:01:42;;;;;;;;;48.00;40.00;;;;;11.92;52.19;101306.00;4956064;28;10452;-74
2022/02/23 10:04:13;;;;;;;;;39.75;34.25;;;;;12.49;52.52;101306.59;4939867;28;10690;-74
2022/02/23 10:06:43;;;;;;;;;24.25;23.50;;;;;12.24;50.70;101304.69;4956299;28;10318;-73
2022/02/23 10:09:13;;;;;;;;;59.25;44.75;;;;;12.34;50.27;101309.06;4956368;28;10388;-73
2022/02/23 10:11:45;;;;;;;;;74.75;53.50;;;;;11.78;53.02;101300.56;4956281;28;11739;-75
2022/02/23 10:14:14;;;;;;;;;67.50;52.50;;;;;12.40;53.23;101302.22;4956501;28;11432;-73
2022/02/23 10:16:47;;;;;;;;;54.50;45.75;;;;;12.55;52.78;101303.66;4955580;28;11470;-73
2022/02/23 10:19:19;;;;;;;;;42.50;38.25;;;;;12.62;51.94;101298.44;4947936;28;10965;-73
2022/02/23 10:21:57;;;;;;;;;32.50;31.00;;;;;13.04;51.95;101303.06;4955906;28;10562;-73
2022/02/23 10:24:28;;;;;;;;;69.75;51.50;;;;;12.75;51.31;101305.75;4956185;28;10298;-74
2022/02/23 10:27:08;;;;;;;;;55.50;45.00;;;;;12.92;51.17;101316.81;4954765;28;11386;-74
2022/02/23 10:29:35;;;;;;;;;38.00;36.00;;;;;13.21;50.55;101310.53;4954825;28;10959;-73
2022/02/23 10:32:10;;;;;;;;;54.50;45.00;;;;;13.33;49.43;101304.25;4955875;28;10873;-73
2022/02/23 10:34:42;;;;;;;;;46.25;38.25;;;;;13.14;49.09;101306.59;4956072;28;10902;-73
2022/02/23 10:37:16;;;;;;;;;55.00;46.25;;;;;13.08;49.48;101309.56;4956144;28;11247;-73
2022/02/23 10:40:00;;;;;;;;;57.25;45.00;;;;;13.09;49.37;101302.03;4955806;28;10480;-72
2022/02/23 10:42:33;;;;;;;;;44.75;40.00;;;;;13.25;48.69;101303.13;4954506;28;11473;-75
2022/02/23 10:45:04;;;;;;;;;45.25;40.00;;;;;13.38;49.37;101309.63;4955952;28;10708;-73
2022/02/23 10:47:37;;;;;;;;;43.25;37.00;;;;;13.24;48.52;101318.19;4955127;28;10654;-75
2022/02/23 10:50:05;;;;;;;;;48.75;40.00;;;;;13.52;47.94;101309.38;4946114;28;10828;-73
2022/02/23 10:52:51;;;;;;;;;39.25;37.00;;;;;13.59;48.74;101312.47;4955383;28;10543;-73
2022/02/23 10:55:32;;;;;;;;;25.75;25.25;;;;;13.39;47.97;101310.44;4937405;28;10192;-73
2022/02/23 10:58:02;;;;;;;;;30.50;27.50;;;;;13.46;48.25;101316.28;4949730;28;9578;-73
2022/02/23 11:00:35;;;;;;;;;34.25;32.50;;;;;13.44;48.72;101311.06;4954618;28;9577;-73
2022/02/23 11:03:04;;;;;;;;;23.50;22.50;;;;;13.57;48.38;101317.50;4954361;28;9821;-74
2022/02/23 11:05:33;;;;;;;;;30.50;29.50;;;;;13.71;47.99;101318.09;4949086;28;9574;-72
2022/02/23 11:08:04;;;;;;;;;20.00;20.00;;;;;13.78;47.22;101314.78;4947768;29;9768;-74
2022/02/23 11:10:32;;;;;;;;;38.25;35.50;;;;;13.87;46.56;101321.09;4928174;28;10131;-74
2022/02/23 11:13:01;;;;;;;;;43.25;38.75;;;;;13.66;47.23;101320.28;4934160;29;10153;-74
2022/02/23 11:15:31;;;;;;;;;44.50;37.00;;;;;13.49;48.05;101330.31;4946883;28;11028;-72
2022/02/23 11:18:00;;;;;;;;;48.00;37.75;;;;;13.46;48.26;101321.84;4952415;28;10172;-73
2022/02/23 11:20:31;;;;;;;;;51.25;42.00;;;;;13.79;48.02;101324.75;4944601;28;10236;-73
2022/02/23 11:23:28;;;;;;;;;54.50;45.25;;;;;13.75;47.92;101326.59;4952795;28;10520;-72
2022/02/23 11:26:29;;;;;;;;;52.75;43.25;;;;;13.91;46.65;101324.84;4942758;28;10698;-73
2022/02/23 11:29:16;;;;;;;;;54.75;44.25;;;;;13.84;48.08;101321.78;4956780;28;11114;-74
2022/02/23 11:32:11;;;;;;;;;54.25;44.75;;;;;13.60;46.45;101320.44;4948489;28;10563;-75
2022/02/23 11:35:08;;;;;;;;;54.25;44.00;;;;;13.94;47.50;101315.81;4944384;28;10603;-75
2022/02/23 11:38:04;;;;;;;;;37.75;34.00;;;;;13.27;47.02;101308.38;4951617;28;10733;-74
2022/02/23 11:41:00;;;;;;;;;50.75;38.75;;;;;13.64;46.42;101303.91;4949495;28;10404;-73
2022/02/23 11:44:17;;;;;;;;;54.50;40.50;;;;;13.55;46.71;101300.38;4934772;29;10566;-74
2022/02/23 11:47:18;;;;;;;;;46.50;37.75;;;;;13.63;47.06;101285.59;4939284;29;10387;-73
2022/02/23 11:50:20;;;;;;;;;26.00;25.25;;;;;14.07;46.04;101292.47;4943118;28;11185;-74
2022/02/23 11:52:50;;;;;;;;;26.25;25.25;;;;;14.62;44.18;101284.94;4974054;28;9563;-74
2022/02/23 11:55:42;;;;;;;;;35.00;33.25;;;;;14.89;44.64;101286.31;4944287;28;10388;-74
2022/02/23 11:58:43;;;;;;;;;24.25;20.50;;;;;14.87;44.02;101288.59;4952770;29;9979;-74
2022/02/23 12:01:49;;;;;;;;;45.25;39.00;;;;;14.49;43.88;101288.84;4948499;29;9726;-73
2022/02/23 12:04:47;;;;;;;;;36.00;34.33;;;;;14.62;44.61;101287.72;4953254;29;9875;-74
2022/02/23 12:07:48;;;;;;;;;34.00;32.25;;;;;14.56;44.49;101286.31;4953264;29;9326;-74
2022/02/23 12:10:44;;;;;;;;;45.00;37.50;;;;;14.43;43.00;101293.81;4953122;29;10393;-73
2022/02/23 12:13:45;;;;;;;;;24.00;22.67;;;;;14.74;41.96;101290.56;4930735;29;9649;-73
2022/02/23 12:16:47;;;;;;;;;25.00;24.00;;;;;14.24;40.79;101296.25;4944912;29;9247;-74
2022/02/23 12:19:43;;;;;;;;;34.00;30.25;;;;;14.53;41.25;101292.59;4951767;29;9202;-74
2022/02/23 12:22:31;;;;;;;;;39.75;36.25;;;;;14.35;41.48;101301.06;4953919;28;9652;-77
2022/02/23 12:25:52;;;;;;;;;24.00;23.00;;;;;14.26;40.62;101310.63;4953070;29;9457;-73
2022/02/23 12:28:51;;;;;;;;;21.00;17.33;;;;;14.19;40.68;101305.66;4953750;29;9353;-74
2022/02/23 12:31:47;;;;;;;;;15.00;14.00;;;;;14.35;40.90;101301.06;4953456;29;9211;-76
2022/02/23 12:34:42;;;;;;;;;15.67;15.67;;;;;14.52;40.69;101300.13;4953420;29;9264;-77
2022/02/23 12:37:40;;;;;;;;;22.33;22.33;;;;;14.54;40.69;101308.13;4953526;29;9349;-74
2022/02/23 12:40:37;;;;;;;;;24.00;23.00;;;;;13.85;40.16;101307.53;4943863;28;9544;-74
2022/02/23 12:43:33;;;;;;;;;20.33;19.67;;;;;14.23;40.29;101309.34;4957177;28;9321;-76
2022/02/23 12:46:31;;;;;;;;;32.33;31.00;;;;;14.29;39.94;101307.19;4956881;28;9431;-75
2022/02/23 12:49:28;;;;;;;;;17.33;16.67;;;;;14.27;39.74;101313.09;4944035;28;9281;-75
2022/02/23 12:52:24;;;;;;;;;20.67;16.33;;;;;14.17;39.84;101314.31;4956751;28;9857;-75